Time;durP1;ratioP1;P1;durP2;ratioP2;P2;SDS_P1;SDS_P2;PMS_P1;PMS_P2;Temp;Humidity;BMP_temperature;BMP_pressure;BME280_temperature;BME280_humidity;BME280_pressure;Samples;Min_cycle;Max_cycle;Signal;HPM_P1;HPM_P2
2023/08/26 00:00:07;;;;;;;9.98;5.28;;;19.90;99.90;;;;;;5033585;28;20037;-80
2023/08/26 00:02:36;;;;;;;9.23;5.38;;;19.90;99.90;;;;;;5040049;28;20040;-81
2023/08/26 00:05:03;;;;;;;9.43;5.00;;;20.00;99.90;;;;;;5051205;28;20052;-80
2023/08/26 00:07:29;;;;;;;7.13;4.57;;;19.90;99.90;;;;;;5032570;28;20367;-81
2023/08/26 00:09:55;;;;;;;10.55;5.13;;;19.90;99.90;;;;;;5033262;28;20040;-81
2023/08/26 00:12:21;;;;;;;10.13;5.40;;;20.00;99.90;;;;;;5043355;28;20400;-82
2023/08/26 00:14:47;;;;;;;10.88;5.82;;;20.00;99.90;;;;;;5050099;28;20405;-81
2023/08/26 00:17:13;;;;;;;13.20;5.20;;;20.00;99.90;;;;;;5050641;28;20056;-81
2023/08/26 00:19:39;;;;;;;11.48;6.32;;;20.00;99.90;;;;;;5049960;28;20041;-81
2023/08/26 00:22:06;;;;;;;11.07;5.82;;;20.10;99.90;;;;;;5051214;28;20028;-82
2023/08/26 00:24:32;;;;;;;14.82;6.43;;;20.10;99.90;;;;;;5015233;28;20053;-80
2023/08/26 00:26:59;;;;;;;11.93;5.68;;;20.10;99.90;;;;;;5031228;28;20029;-81
2023/08/26 00:29:25;;;;;;;10.23;4.72;;;20.00;99.90;;;;;;5032258;28;20104;-81
2023/08/26 00:31:51;;;;;;;8.95;5.22;;;20.00;99.90;;;;;;5031986;28;20489;-81
2023/08/26 00:34:17;;;;;;;12.23;5.72;;;20.00;99.90;;;;;;5051398;28;20033;-82
2023/08/26 00:36:44;;;;;;;12.48;5.50;;;20.00;99.90;;;;;;5054409;28;20445;-81
2023/08/26 00:39:11;;;;;;;11.60;5.00;;;20.00;99.90;;;;;;5039345;28;20040;-81
2023/08/26 00:41:37;;;;;;;12.85;7.25;;;20.00;99.90;;;;;;5053443;28;20051;-82
2023/08/26 00:44:03;;;;;;;10.57;5.25;;;20.00;99.90;;;;;;5054694;28;20036;-81
2023/08/26 00:46:29;;;;;;;11.00;6.22;;;19.90;99.90;;;;;;5054061;28;20396;-81
2023/08/26 00:48:56;;;;;;;11.68;6.10;;;19.90;99.90;;;;;;5035664;28;20036;-81
2023/08/26 00:51:22;;;;;;;12.52;6.03;;;19.80;99.90;;;;;;5049754;28;20474;-82
2023/08/26 00:53:49;;;;;;;12.07;6.25;;;19.90;99.90;;;;;;5040413;28;20044;-82
2023/08/26 00:56:16;;;;;;;11.20;6.53;;;19.90;99.90;;;;;;5036795;28;20041;-81
2023/08/26 00:58:43;;;;;;;8.98;5.40;;;19.90;99.90;;;;;;5046117;28;20450;-81
2023/08/26 01:01:09;;;;;;;13.80;7.38;;;19.90;99.90;;;;;;5054439;28;20032;-82
2023/08/26 01:03:37;;;;;;;11.85;6.18;;;19.90;99.90;;;;;;5035419;28;20474;-82
2023/08/26 01:06:03;;;;;;;14.25;7.50;;;20.00;99.90;;;;;;5053658;28;20398;-82
2023/08/26 01:08:30;;;;;;;13.27;6.72;;;19.90;99.90;;;;;;5043730;28;20049;-82
2023/08/26 01:11:16;;;;;;;14.85;7.25;;;20.00;99.90;;;;;;5027896;28;20046;-81
2023/08/26 01:13:56;;;;;;;17.58;8.05;;;20.00;99.90;;;;;;5030438;28;20049;-81
2023/08/26 01:16:24;;;;;;;;;;;20.10;99.90;;;;;;5035425;28;20042;-82
2023/08/26 01:18:51;;;;;;;22.58;8.73;;;20.10;99.90;;;;;;5054309;28;19915;-82
2023/08/26 01:21:19;;;;;;;20.13;10.45;;;20.10;99.90;;;;;;5035661;28;20049;-81
2023/08/26 01:23:47;;;;;;;24.17;10.40;;;20.10;99.90;;;;;;5050936;28;20053;-81
2023/08/26 01:26:15;;;;;;;28.02;12.10;;;20.10;99.90;;;;;;5017764;28;20052;-81
2023/08/26 01:28:41;;;;;;;22.13;12.35;;;20.10;99.90;;;;;;5053338;28;20028;-81
2023/08/26 01:31:10;;;;;;;27.65;11.32;;;20.10;99.90;;;;;;5053954;28;20036;-81
2023/08/26 01:33:44;;;;;;;28.52;12.02;;;20.10;99.90;;;;;;5029843;28;20048;-81
2023/08/26 01:36:15;;;;;;;27.02;11.45;;;20.10;99.90;;;;;;5035469;28;20486;-81
2023/08/26 01:38:42;;;;;;;32.35;12.18;;;20.20;99.90;;;;;;5024056;28;20049;-81
2023/08/26 01:41:10;;;;;;;30.15;13.32;;;20.10;99.90;;;;;;5053926;28;20029;-81
2023/08/26 01:43:36;;;;;;;34.25;14.13;;;20.10;99.90;;;;;;5033332;28;20053;-82
2023/08/26 01:46:02;;;;;;;32.05;12.27;;;20.10;99.90;;;;;;5053342;28;20035;-81
2023/08/26 01:48:29;;;;;;;27.40;11.63;;;20.10;99.90;;;;;;5036848;28;20041;-81
2023/08/26 01:50:55;;;;;;;29.20;11.48;;;20.20;99.90;;;;;;5034410;28;20052;-80
2023/08/26 01:53:22;;;;;;;25.40;11.40;;;20.10;99.90;;;;;;5052841;28;20063;-81
2023/08/26 01:55:48;;;;;;;25.63;11.02;;;20.20;99.90;;;;;;5052801;28;20033;-81
2023/08/26 01:58:14;;;;;;;23.42;9.40;;;20.20;99.90;;;;;;5039445;28;20041;-81
2023/08/26 02:00:40;;;;;;;22.10;9.68;;;20.20;99.90;;;;;;5034561;28;20493;-81
2023/08/26 02:03:07;;;;;;;23.52;10.85;;;20.20;99.90;;;;;;5031366;28;20056;-82
2023/08/26 02:05:33;;;;;;;22.27;10.50;;;20.20;99.90;;;;;;5034671;28;20065;-81
2023/08/26 02:08:02;;;;;;;19.98;9.95;;;20.20;99.90;;;;;;5053207;28;20037;-80
2023/08/26 02:10:28;;;;;;;20.67;10.50;;;20.10;99.90;;;;;;5037905;28;20042;-81
2023/08/26 02:12:55;;;;;;;18.27;8.95;;;20.10;99.90;;;;;;5053295;28;20033;-81
2023/08/26 02:15:21;;;;;;;20.55;9.50;;;20.10;99.90;;;;;;5017503;28;20117;-80
2023/08/26 02:17:48;;;;;;;17.42;9.80;;;20.00;99.90;;;;;;5034694;28;20037;-82
2023/08/26 02:20:14;;;;;;;18.48;8.98;;;19.90;99.90;;;;;;5034840;28;20045;-81
2023/08/26 02:22:40;;;;;;;17.00;8.82;;;19.80;99.90;;;;;;5041942;28;20049;-81
2023/08/26 02:25:07;;;;;;;14.38;8.35;;;19.70;99.90;;;;;;5023342;28;20052;-81
2023/08/26 02:27:34;;;;;;;16.00;8.02;;;19.60;99.90;;;;;;5031963;28;20048;-81
2023/08/26 02:30:00;;;;;;;16.73;8.82;;;19.60;99.90;;;;;;5030179;28;20399;-81
2023/08/26 02:32:26;;;;;;;14.35;8.48;;;19.50;99.90;;;;;;5030399;28;20033;-81
2023/08/26 02:34:52;;;;;;;16.88;8.50;;;19.50;99.90;;;;;;5026768;28;20488;-81
2023/08/26 02:37:18;;;;;;;15.18;9.52;;;19.50;99.90;;;;;;5027459;28;20045;-81
2023/08/26 02:39:45;;;;;;;14.30;8.35;;;19.50;99.90;;;;;;5027456;28;20036;-81
2023/08/26 02:42:11;;;;;;;15.73;8.18;;;19.40;99.90;;;;;;5052722;28;20490;-82
2023/08/26 02:44:37;;;;;;;15.75;8.48;;;19.40;99.90;;;;;;5033500;28;20046;-82
2023/08/26 02:47:04;;;;;;;17.13;8.20;;;19.40;99.90;;;;;;5052582;28;20040;-82
2023/08/26 02:49:30;;;;;;;14.10;8.70;;;19.40;99.90;;;;;;5051794;28;20409;-83
2023/08/26 02:51:56;;;;;;;15.35;7.93;;;19.40;99.90;;;;;;5039841;28;20470;-81
2023/08/26 02:54:24;;;;;;;14.85;7.93;;;19.40;99.90;;;;;;5032596;28;20532;-81
2023/08/26 02:56:50;;;;;;;19.85;8.50;;;19.40;99.90;;;;;;5053515;28;20048;-80
2023/08/26 02:59:16;;;;;;;15.02;8.23;;;19.40;99.90;;;;;;5028719;28;20045;-81
2023/08/26 03:01:42;;;;;;;15.32;8.25;;;19.40;99.90;;;;;;5054791;28;20036;-81
2023/08/26 03:04:10;;;;;;;17.17;8.63;;;19.30;99.90;;;;;;5034013;28;20055;-82
2023/08/26 03:06:37;;;;;;;20.08;8.45;;;19.30;99.90;;;;;;5041492;28;20044;-81
2023/08/26 03:09:03;;;;;;;14.98;8.25;;;19.30;99.90;;;;;;5036479;28;20048;-81
2023/08/26 03:11:30;;;;;;;18.73;8.40;;;19.30;99.90;;;;;;5052212;28;20036;-81
2023/08/26 03:13:57;;;;;;;14.02;8.63;;;19.30;99.90;;;;;;5033214;28;20041;-82
2023/08/26 03:16:23;;;;;;;19.27;9.88;;;19.30;99.90;;;;;;5051985;28;20056;-81
2023/08/26 03:18:49;;;;;;;11.50;7.57;;;19.30;99.90;;;;;;5032661;28;20041;-82
2023/08/26 03:21:15;;;;;;;16.90;8.23;;;19.20;99.90;;;;;;5033760;28;20041;-82
2023/08/26 03:23:41;;;;;;;13.23;7.10;;;19.20;99.90;;;;;;5050983;28;20037;-82
2023/08/26 03:26:07;;;;;;;12.38;6.97;;;19.20;99.90;;;;;;5030783;28;20585;-83
2023/08/26 03:28:35;;;;;;;11.38;7.13;;;19.20;99.90;;;;;;5028881;28;20048;-83
2023/08/26 03:31:05;;;;;;;13.93;6.95;;;19.10;99.90;;;;;;5034093;28;20063;-83
2023/08/26 03:33:35;;;;;;;12.50;6.53;;;19.10;99.90;;;;;;5026889;28;20041;-84
2023/08/26 03:36:06;;;;;;;11.63;7.07;;;19.10;99.90;;;;;;5022399;28;20045;-83
2023/08/26 03:38:34;;;;;;;10.40;7.10;;;19.10;99.90;;;;;;5049245;28;20041;-83
2023/08/26 03:41:05;;;;;;;20.83;7.55;;;19.10;99.90;;;;;;5051544;28;20143;-83
2023/08/26 03:43:31;;;;;;;13.02;7.63;;;19.20;99.90;;;;;;5051038;28;20039;-83
2023/08/26 03:45:59;;;;;;;12.45;7.25;;;19.10;99.90;;;;;;5032569;28;20374;-83
2023/08/26 03:48:25;;;;;;;16.95;8.18;;;19.10;99.90;;;;;;5051247;28;20044;-83
2023/08/26 03:50:52;;;;;;;14.35;7.70;;;19.00;99.90;;;;;;5027926;28;20053;-83
2023/08/26 03:53:19;;;;;;;13.13;7.32;;;19.00;99.90;;;;;;5024544;28;20064;-84
2023/08/26 03:55:46;;;;;;;10.38;7.90;;;19.10;99.90;;;;;;5031072;28;20041;-84
2023/08/26 03:58:12;;;;;;;12.80;8.20;;;19.00;99.90;;;;;;5033493;28;20037;-84
2023/08/26 04:00:40;;;;;;;15.10;8.25;;;19.00;99.90;;;;;;5031716;28;20552;-84
2023/08/26 04:03:12;;;;;;;15.65;7.80;;;19.00;99.90;;;;;;5049597;28;20486;-84
2023/08/26 04:05:40;;;;;;;12.23;6.88;;;19.00;99.90;;;;;;5032176;28;20053;-84
2023/08/26 04:08:06;;;;;;;11.35;7.22;;;19.00;99.90;;;;;;5050139;28;20049;-84
2023/08/26 04:10:33;;;;;;;14.95;8.32;;;19.10;99.90;;;;;;5032257;28;20052;-84
2023/08/26 04:13:25;;;;;;;13.50;8.85;;;19.00;99.90;;;;;;5050755;28;20025;-84
2023/08/26 04:16:02;;;;;;;14.88;7.90;;;19.10;99.90;;;;;;5030550;28;20044;-86
2023/08/26 04:18:32;;;;;;;11.43;6.32;;;19.00;99.90;;;;;;5028134;28;20037;-85
2023/08/26 04:20:59;;;;;;;;;;;18.90;99.90;;;;;;5032188;28;20053;-85
2023/08/26 04:23:28;;;;;;;12.80;8.02;;;18.80;99.90;;;;;;5029861;28;19912;-86
2023/08/26 04:26:02;;;;;;;10.48;6.05;;;18.70;99.90;;;;;;5050609;28;20533;-85
2023/08/26 04:28:29;;;;;;;13.10;7.28;;;18.80;99.90;;;;;;5030060;28;20040;-85
2023/08/26 04:30:58;;;;;;;10.20;6.65;;;18.80;99.90;;;;;;5026081;28;20250;-85
2023/08/26 04:33:24;;;;;;;13.10;7.13;;;18.70;99.90;;;;;;5031708;28;20402;-86
2023/08/26 04:35:51;;;;;;;12.85;6.53;;;18.70;73.60;;;;;;5050277;28;20044;-85
2023/08/26 04:38:17;;;;;;;11.63;6.28;;;18.70;50.60;;;;;;5051099;28;20029;-84
2023/08/26 04:40:44;;;;;;;10.50;6.72;;;18.60;44.10;;;;;;5050178;28;20115;-85
2023/08/26 04:43:13;;;;;;;11.90;5.55;;;18.60;40.00;;;;;;5026912;28;20397;-83
2023/08/26 04:45:40;;;;;;;8.30;5.75;;;18.60;26.70;;;;;;5020133;28;20056;-84
2023/08/26 04:48:07;;;;;;;8.65;5.00;;;18.50;1.00;;;;;;5032742;28;20037;-87
2023/08/26 04:50:34;;;;;;;8.10;4.50;;;18.40;1.00;;;;;;5030943;28;20041;-85
2023/08/26 04:53:01;;;;;;;6.75;4.70;;;18.40;1.00;;;;;;5030918;28;20056;-89
2023/08/26 04:55:27;;;;;;;9.18;4.82;;;18.40;1.00;;;;;;5018089;28;20048;-87
2023/08/26 04:57:53;;;;;;;5.57;3.67;;;18.30;1.00;;;;;;5032075;28;20044;-84
2023/08/26 05:00:19;;;;;;;6.22;3.67;;;18.30;1.00;;;;;;5029818;28;20048;-85
2023/08/26 05:02:45;;;;;;;7.50;3.97;;;18.30;99.90;;;;;;5052858;28;20040;-87
2023/08/26 05:05:11;;;;;;;9.63;5.50;;;18.40;99.90;;;;;;5051276;28;20481;-87
2023/08/26 05:07:38;;;;;;;6.63;3.80;;;18.40;99.90;;;;;;5030118;28;20041;-82
2023/08/26 05:10:04;;;;;;;7.43;4.10;;;18.30;99.90;;;;;;5049866;28;20025;-84
2023/08/26 05:12:31;;;;;;;6.20;4.25;;;18.40;99.90;;;;;;5029190;28;20408;-85
2023/08/26 05:14:57;;;;;;;10.35;4.35;;;18.30;99.90;;;;;;5031994;28;20375;-84
2023/08/26 05:17:23;;;;;;;10.68;5.47;;;18.20;99.90;;;;;;5022853;28;20394;-85
2023/08/26 05:19:50;;;;;;;8.57;4.53;;;18.20;99.90;;;;;;5030641;28;20045;-84
2023/08/26 05:22:16;;;;;;;6.72;3.63;;;18.20;99.90;;;;;;5034163;28;20049;-83
2023/08/26 05:24:42;;;;;;;6.90;4.38;;;18.20;99.90;;;;;;5018571;28;20041;-83
2023/08/26 05:27:08;;;;;;;7.05;3.53;;;18.30;99.90;;;;;;5049838;28;20398;-82
2023/08/26 05:29:36;;;;;;;6.35;3.83;;;18.30;99.90;;;;;;5035226;28;20033;-83
2023/08/26 05:32:02;;;;;;;6.70;3.25;;;18.40;99.90;;;;;;5039115;28;20469;-82
2023/08/26 05:34:28;;;;;;;6.57;3.53;;;18.60;99.90;;;;;;5028490;28;20398;-82
2023/08/26 05:36:55;;;;;;;6.85;3.35;;;18.90;99.90;;;;;;5034625;28;20466;-82
2023/08/26 05:39:21;;;;;;;4.22;2.80;;;19.00;99.90;;;;;;5027593;28;20390;-84
2023/08/26 05:41:47;;;;;;;4.22;3.17;;;19.10;99.90;;;;;;5034314;28;20037;-82
2023/08/26 05:44:13;;;;;;;6.00;2.35;;;19.10;99.90;;;;;;5039208;28;20498;-82
2023/08/26 05:46:40;;;;;;;6.35;3.63;;;19.40;99.90;;;;;;5034561;28;20054;-82
2023/08/26 05:49:06;;;;;;;5.00;2.08;;;19.40;65.30;;;;;;5031916;28;20041;-82
2023/08/26 05:51:32;;;;;;;3.97;1.70;;;19.60;84.40;;;;;;5053399;28;20049;-83
2023/08/26 05:53:59;;;;;;;7.05;2.85;;;19.60;1.00;;;;;;5034131;28;20052;-82
2023/08/26 05:56:25;;;;;;;3.78;1.95;;;19.40;1.00;;;;;;5026473;28;20041;-82
2023/08/26 05:58:51;;;;;;;2.90;2.03;;;19.30;1.00;;;;;;5051852;28;20044;-81
2023/08/26 06:01:17;;;;;;;5.75;2.40;;;19.10;1.00;;;;;;5034862;28;20045;-84
2023/08/26 06:03:43;;;;;;;4.07;1.70;;;18.80;99.90;;;;;;5032072;28;20045;-83
2023/08/26 06:06:11;;;;;;;3.35;2.03;;;18.70;99.90;;;;;;5034911;28;20048;-83
2023/08/26 06:08:37;;;;;;;1.73;0.90;;;18.50;99.90;;;;;;5040356;28;20041;-83
2023/08/26 06:11:03;;;;;;;3.85;0.98;;;18.30;99.90;;;;;;5026257;28;20048;-83
2023/08/26 06:13:30;;;;;;;2.05;1.05;;;18.20;99.90;;;;;;5034731;28;20466;-83
2023/08/26 06:15:58;;;;;;;3.65;0.95;;;18.10;99.90;;;;;;5029238;28;20052;-83
2023/08/26 06:18:26;;;;;;;1.67;0.77;;;18.00;99.90;;;;;;5041207;28;20047;-86
2023/08/26 06:20:52;;;;;;;2.05;0.63;;;17.90;96.90;;;;;;5051721;28;20371;-84
2023/08/26 06:23:19;;;;;;;1.30;0.45;;;17.90;99.70;;;;;;5034771;28;20410;-84
2023/08/26 06:25:53;;;;;;;3.15;0.80;;;17.90;1.00;;;;;;5044611;28;20052;-84
2023/08/26 06:28:21;;;;;;;2.35;0.60;;;17.80;1.00;;;;;;5022454;28;20390;-85
2023/08/26 06:30:47;;;;;;;2.85;1.25;;;17.80;1.00;;;;;;5016714;28;20048;-84
2023/08/26 06:33:14;;;;;;;1.88;0.60;;;17.70;1.00;;;;;;5052392;28;20040;-85
2023/08/26 06:35:45;;;;;;;1.77;0.82;;;17.70;1.00;;;;;;5026400;28;20052;-85
2023/08/26 06:38:11;;;;;;;2.58;0.40;;;17.70;1.00;;;;;;5052417;28;20040;-85
2023/08/26 06:40:37;;;;;;;1.30;0.52;;;17.70;1.00;;;;;;5034380;28;20045;-85
2023/08/26 06:43:03;;;;;;;1.25;0.50;;;17.80;1.00;;;;;;5051629;28;20032;-85
2023/08/26 06:45:31;;;;;;;2.88;0.68;;;17.80;1.00;;;;;;5023853;28;20385;-86
2023/08/26 06:47:57;;;;;;;2.03;0.50;;;17.90;1.00;;;;;;5032970;28;20037;-86
2023/08/26 06:50:24;;;;;;;1.92;0.93;;;17.80;1.00;;;;;;5052744;28;20501;-86
2023/08/26 06:52:50;;;;;;;1.83;0.65;;;17.80;1.00;;;;;;5022949;28;20072;-85
2023/08/26 06:55:17;;;;;;;1.05;0.55;;;17.80;1.00;;;;;;5052353;28;20025;-86
2023/08/26 06:57:44;;;;;;;1.55;0.75;;;17.80;1.00;;;;;;5033975;28;20041;-86
2023/08/26 07:00:12;;;;;;;2.67;0.60;;;17.90;1.00;;;;;;5052368;28;20485;-86
2023/08/26 07:02:39;;;;;;;2.55;1.00;;;18.00;1.00;;;;;;5034473;28;20049;-86
2023/08/26 07:05:05;;;;;;;1.90;0.75;;;18.10;99.90;;;;;;5050891;28;20041;-86
2023/08/26 07:07:32;;;;;;;1.20;0.60;;;18.20;1.00;;;;;;5052180;28;20466;-86
2023/08/26 07:09:58;;;;;;;2.60;0.90;;;18.30;99.90;;;;;;5030402;28;20044;-86
2023/08/26 07:12:24;;;;;;;1.48;0.90;;;18.70;1.00;;;;;;5052135;28;20036;-88
2023/08/26 07:14:50;;;;;;;2.58;1.00;;;18.80;99.90;;;;;;5051360;28;20374;-87
2023/08/26 07:17:17;;;;;;;2.60;1.17;;;18.70;99.90;;;;;;5052271;28;20398;-86
2023/08/26 07:19:44;;;;;;;1.38;0.70;;;18.60;1.00;;;;;;5051899;28;20052;-87
2023/08/26 07:22:11;;;;;;;1.27;0.63;;;18.70;99.90;;;;;;5052284;28;20032;-88
2023/08/26 07:24:38;;;;;;;1.13;0.50;;;18.70;99.90;;;;;;5052216;28;20367;-88
2023/08/26 07:27:04;;;;;;;2.38;0.60;;;18.70;1.00;;;;;;5033396;28;20036;-87
2023/08/26 07:29:34;;;;;;;1.00;0.70;;;18.60;1.00;;;;;;5051607;28;20033;-88
2023/08/26 07:32:00;;;;;;;1.77;0.60;;;18.50;1.00;;;;;;5051257;28;20037;-88
2023/08/26 07:34:26;;;;;;;1.60;0.63;;;18.50;99.90;;;;;;5052538;28;20040;-88
2023/08/26 07:36:52;;;;;;;3.63;0.70;;;18.40;1.00;;;;;;5051964;28;20025;-88
2023/08/26 07:39:20;;;;;;;2.55;0.60;;;18.50;1.00;;;;;;5054264;28;20040;-87
2023/08/26 07:41:46;;;;;;;1.48;0.80;;;18.50;1.00;;;;;;5052267;28;20025;-84
2023/08/26 07:44:13;;;;;;;2.15;0.85;;;18.50;99.90;;;;;;5022619;28;20048;-89
2023/08/26 07:46:39;;;;;;;2.08;1.00;;;18.40;1.00;;;;;;5034762;28;20037;-89
2023/08/26 07:49:05;;;;;;;1.58;0.70;;;18.40;1.00;;;;;;5074704;28;20041;-86
2023/08/26 07:51:31;;;;;;;0.70;0.40;;;18.40;99.90;;;;;;5047575;28;20492;-90
2023/08/26 07:53:57;;;;;;;1.40;0.52;;;18.40;1.00;;;;;;5065144;28;20033;-87
2023/08/26 07:56:23;;;;;;;1.75;0.70;;;18.40;1.00;;;;;;5072970;28;20017;-88
2023/08/26 07:58:50;;;;;;;2.15;0.52;;;18.30;99.90;;;;;;5036257;28;20064;-87
2023/08/26 08:01:16;;;;;;;1.38;0.70;;;18.30;99.90;;;;;;5064957;28;20029;-88
2023/08/26 08:03:42;;;;;;;2.08;0.70;;;18.30;99.90;;;;;;5060463;28;20025;-88
2023/08/26 08:06:08;;;;;;;1.70;0.70;;;18.30;1.00;;;;;;5052614;28;20044;-89
2023/08/26 08:08:35;;;;;;;2.75;0.60;;;18.20;1.00;;;;;;5052545;28;20037;-87
2023/08/26 08:11:01;;;;;;;4.28;1.13;;;18.20;1.00;;;;;;5023514;28;20044;-90
2023/08/26 08:13:27;;;;;;;3.17;0.50;;;18.20;1.00;;;;;;5038379;28;20048;-90
2023/08/26 08:15:53;;;;;;;2.70;0.70;;;18.10;1.00;;;;;;5051277;28;20036;-88
2023/08/26 08:18:19;;;;;;;3.35;1.27;;;18.10;1.00;;;;;;5051504;28;20037;-89
2023/08/26 08:20:45;;;;;;;1.42;0.47;;;18.20;1.00;;;;;;5052015;28;20032;-90
2023/08/26 08:23:11;;;;;;;2.90;1.73;;;18.20;99.90;;;;;;5020034;28;20059;-90
2023/08/26 08:25:37;;;;;;;1.83;0.60;;;18.20;99.90;;;;;;5051052;28;20037;-90
2023/08/26 08:28:04;;;;;;;1.15;0.60;;;18.20;1.00;;;;;;5051029;28;20139;-88
2023/08/26 08:30:30;;;;;;;1.98;0.60;;;18.30;99.90;;;;;;5051692;28;20426;-87
2023/08/26 08:32:56;;;;;;;1.52;0.70;;;18.30;99.90;;;;;;5033164;28;20041;-88
2023/08/26 08:35:22;;;;;;;1.05;0.45;;;18.40;99.90;;;;;;5028404;28;20071;-88
2023/08/26 08:37:49;;;;;;;2.72;0.60;;;18.40;99.90;;;;;;5034228;28;20041;-85
2023/08/26 08:40:16;;;;;;;1.13;0.45;;;18.50;99.90;;;;;;5036885;28;20037;-87
2023/08/26 08:42:44;;;;;;;2.75;0.57;;;18.40;99.90;;;;;;5054477;28;20036;-88
2023/08/26 08:45:11;;;;;;;1.30;0.63;;;18.40;99.90;;;;;;5038765;28;20056;-87
2023/08/26 08:47:38;;;;;;;1.85;0.70;;;18.40;99.90;;;;;;5028939;28;20033;-89
2023/08/26 08:50:05;;;;;;;2.55;0.80;;;18.50;99.90;;;;;;5030875;28;20056;-88
2023/08/26 08:52:33;;;;;;;1.73;0.52;;;18.60;99.90;;;;;;5056404;28;20037;-88
2023/08/26 08:54:59;;;;;;;0.88;0.40;;;18.70;99.90;;;;;;5062222;28;20037;-89
2023/08/26 08:57:32;;;;;;;2.35;0.65;;;18.70;99.90;;;;;;5063954;28;20025;-91
2023/08/26 08:59:58;;;;;;;2.42;0.40;;;18.70;99.90;;;;;;5055520;28;20024;-90
2023/08/26 09:02:27;;;;;;;1.45;0.47;;;18.80;99.90;;;;;;5055136;28;20036;-90
2023/08/26 09:04:54;;;;;;;2.10;0.60;;;18.80;88.00;;;;;;5054951;28;20041;-90
2023/08/26 09:07:21;;;;;;;1.63;0.65;;;19.00;99.90;;;;;;5055091;28;20036;-89
2023/08/26 09:09:47;;;;;;;0.98;0.70;;;19.10;52.20;;;;;;5021554;28;20048;-89
2023/08/26 09:12:13;;;;;;;1.38;0.63;;;19.30;22.40;;;;;;5055320;28;20029;-90
2023/08/26 09:14:39;;;;;;;1.00;0.40;;;19.40;55.00;;;;;;5037386;28;20040;-88
2023/08/26 09:17:19;;;;;;;1.95;0.70;;;19.50;35.30;;;;;;5054045;28;20029;-87
2023/08/26 09:19:58;;;;;;;1.10;0.68;;;19.60;1.00;;;;;;5054229;28;20025;-89
2023/08/26 09:22:28;;;;;;;2.88;0.57;;;19.70;1.00;;;;;;5053218;28;20041;-90
2023/08/26 09:24:59;;;;;;;1.17;0.50;;;19.70;1.00;;;;;;5053764;28;20041;-89
2023/08/26 09:27:25;;;;;;;1.83;0.50;;;19.90;1.00;;;;;;5051992;28;20037;-90
2023/08/26 09:29:52;;;;;;;1.38;0.65;;;20.10;1.00;;;;;;5029404;28;20037;-88
2023/08/26 09:32:39;;;;;;;1.23;0.55;;;20.20;1.00;;;;;;5037194;28;20403;-90
2023/08/26 09:35:14;;;;;;;2.33;0.68;;;20.30;1.00;;;;;;5035685;28;20100;-88
2023/08/26 09:37:42;;;;;;;1.90;1.45;;;20.40;99.90;;;;;;5032876;28;20046;-89
2023/08/26 09:40:13;;;;;;;1.10;0.50;;;20.50;1.00;;;;;;5054901;28;20041;-88
2023/08/26 09:42:40;;;;;;;3.42;1.08;;;20.80;1.00;;;;;;5034586;28;20497;-88
2023/08/26 09:45:13;;;;;;;5.03;1.38;;;20.90;99.90;;;;;;5052557;28;20049;-89
2023/08/26 09:47:39;;;;;;;5.65;2.22;;;21.10;99.90;;;;;;5051778;28;20382;-89
2023/08/26 09:50:06;;;;;;;8.52;2.65;;;21.10;99.90;;;;;;5053502;28;20049;-89
2023/08/26 09:52:46;;;;;;;6.32;1.88;;;21.20;99.90;;;;;;5054226;28;20028;-88
2023/08/26 09:55:13;;;;;;;3.03;0.70;;;21.50;99.90;;;;;;5053249;28;20052;-87
2023/08/26 09:57:41;;;;;;;0.77;0.50;;;21.50;99.90;;;;;;5053442;28;20033;-87
2023/08/26 10:00:11;;;;;;;1.92;0.55;;;21.50;99.90;;;;;;5005944;28;20052;-89
2023/08/26 10:02:48;;;;;;;2.22;0.50;;;21.10;99.90;;;;;;5041034;28;20067;-85
2023/08/26 10:05:20;;;;;;;0.93;0.43;;;20.90;99.90;;;;;;5052052;28;20425;-84
2023/08/26 10:07:49;;;;;;;2.22;0.50;;;20.80;99.90;;;;;;5049696;28;20048;-85
2023/08/26 10:10:37;;;;;;;0.95;0.40;;;21.10;99.90;;;;;;5051643;28;20029;-84
2023/08/26 10:13:05;;;;;;;1.00;0.40;;;21.40;99.90;;;;;;5051368;28;20033;-85
2023/08/26 10:15:33;;;;;;;3.95;0.65;;;21.80;99.90;;;;;;5052905;28;20060;-85
2023/08/26 10:18:08;;;;;;;2.72;0.63;;;21.50;99.90;;;;;;5052482;28;20478;-85
2023/08/26 10:20:35;;;;;;;2.92;0.80;;;21.50;99.90;;;;;;5045223;28;20048;-84
2023/08/26 10:23:02;;;;;;;1.70;0.60;;;21.40;99.90;;;;;;5017274;28;20041;-83
2023/08/26 10:25:30;;;;;;;3.78;0.82;;;21.30;99.90;;;;;;5056418;28;20040;-84
2023/08/26 10:27:57;;;;;;;3.20;0.70;;;21.60;99.90;;;;;;5034029;28;20040;-83
2023/08/26 10:30:24;;;;;;;1.35;0.40;;;21.90;99.90;;;;;;5029213;28;20029;-85
2023/08/26 10:33:00;;;;;;;5.40;3.10;;;21.80;99.90;;;;;;5055633;28;20033;-84
2023/08/26 10:35:27;;;;;;;0.88;0.50;;;21.90;99.90;;;;;;5025447;28;20035;-85
2023/08/26 10:38:13;;;;;;;2.60;0.50;;;21.90;99.90;;;;;;5051016;28;20025;-84
2023/08/26 10:40:40;;;;;;;1.15;0.60;;;22.10;99.90;;;;;;5051569;28;20044;-84
2023/08/26 10:43:08;;;;;;;1.67;0.43;;;22.00;99.90;;;;;;5051764;28;20339;-85
2023/08/26 10:45:48;;;;;;;0.65;0.50;;;22.20;99.90;;;;;;5051581;28;20037;-84
2023/08/26 10:48:15;;;;;;;1.92;0.50;;;22.30;99.90;;;;;;5050210;28;20488;-83
2023/08/26 10:50:44;;;;;;;2.67;0.47;;;22.00;99.90;;;;;;5052169;28;20029;-84
2023/08/26 10:53:14;;;;;;;1.13;0.45;;;22.00;99.90;;;;;;5051661;28;20136;-83
2023/08/26 10:55:41;;;;;;;2.40;1.10;;;21.90;99.90;;;;;;5051355;28;20040;-85
2023/08/26 10:58:13;;;;;;;2.85;1.10;;;21.80;99.90;;;;;;5051498;28;20029;-84
2023/08/26 11:00:43;;;;;;;2.22;0.90;;;21.80;99.90;;;;;;5033829;28;20033;-84
2023/08/26 11:03:10;;;;;;;1.08;0.57;;;21.80;99.90;;;;;;5050898;28;20028;-83
2023/08/26 11:05:37;;;;;;;1.38;0.60;;;21.60;99.90;;;;;;5033529;28;20402;-84
2023/08/26 11:08:04;;;;;;;1.00;0.40;;;21.50;99.90;;;;;;5033132;28;20025;-82
2023/08/26 11:10:32;;;;;;;1.77;0.50;;;21.30;99.90;;;;;;5039129;28;20393;-84
2023/08/26 11:13:00;;;;;;;1.92;1.08;;;21.40;99.90;;;;;;5033217;28;20040;-82
2023/08/26 11:15:37;;;;;;;0.88;0.40;;;21.30;99.90;;;;;;5051456;28;20036;-83
2023/08/26 11:18:07;;;;;;;0.95;0.50;;;21.20;99.90;;;;;;5050197;28;20037;-82
2023/08/26 11:20:33;;;;;;;;;;;21.20;99.90;;;;;;5050134;28;20037;-83
2023/08/26 11:23:04;;;;;;;1.88;0.55;;;21.30;99.90;;;;;;5051114;28;19919;-82
2023/08/26 11:25:30;;;;;;;2.38;0.70;;;21.30;99.90;;;;;;5049748;28;20036;-83
2023/08/26 11:28:07;;;;;;;1.80;1.17;;;21.70;99.90;;;;;;5030255;28;20037;-83
2023/08/26 11:30:41;;;;;;;1.15;0.47;;;22.00;99.90;;;;;;5051450;28;20040;-82
2023/08/26 11:33:11;;;;;;;1.90;0.63;;;21.60;99.90;;;;;;5048299;28;20044;-81
2023/08/26 11:35:41;;;;;;;1.13;0.55;;;21.40;99.90;;;;;;5051284;28;20029;-81
2023/08/26 11:38:08;;;;;;;;;;;21.70;99.90;;;;;;5049681;28;20535;-82
2023/08/26 11:40:35;;;;;;;1.67;0.55;;;21.80;99.90;;;;;;5033071;28;20373;-83
2023/08/26 11:43:12;;;;;;;3.15;1.38;;;21.90;99.90;;;;;;5051169;28;20025;-81
2023/08/26 11:45:41;;;;;;;2.78;0.60;;;21.50;99.90;;;;;;5019750;28;20064;-83
2023/08/26 11:48:10;;;;;;;1.40;1.05;;;21.40;99.90;;;;;;5050541;28;20040;-82
2023/08/26 11:50:37;;;;;;;2.25;0.77;;;21.20;99.90;;;;;;5032467;28;20053;-82
2023/08/26 11:53:04;;;;;;;2.60;1.15;;;21.30;99.90;;;;;;5050360;28;20041;-81
2023/08/26 11:55:31;;;;;;;2.13;0.50;;;21.40;99.90;;;;;;5050905;28;20036;-82
2023/08/26 11:58:00;;;;;;;3.35;0.93;;;21.40;99.90;;;;;;5051103;28;20450;-81
2023/08/26 12:00:27;;;;;;;3.65;0.85;;;21.30;99.90;;;;;;5050390;28;20040;-82
2023/08/26 12:02:59;;;;;;;1.48;0.50;;;21.40;99.90;;;;;;5031188;28;20390;-81
2023/08/26 12:05:25;;;;;;;3.03;0.40;;;21.50;99.90;;;;;;5048593;28;20040;-81
2023/08/26 12:07:57;;;;;;;0.98;0.50;;;21.60;99.90;;;;;;5050891;28;20028;-81
2023/08/26 12:10:23;;;;;;;1.67;0.43;;;21.80;99.90;;;;;;5020513;28;20458;-81
2023/08/26 12:12:49;;;;;;;1.75;0.70;;;21.80;99.90;;;;;;5050653;28;20029;-81
2023/08/26 12:15:17;;;;;;;3.45;1.08;;;21.80;99.90;;;;;;5050061;28;20033;-81
2023/08/26 12:17:49;;;;;;;3.80;0.80;;;21.70;99.90;;;;;;5050478;28;20056;-81
2023/08/26 12:20:25;;;;;;;2.88;1.17;;;21.70;99.90;;;;;;5049467;28;20029;-80
2023/08/26 12:22:53;;;;;;;3.50;0.60;;;21.50;99.90;;;;;;5050056;28;20033;-81
2023/08/26 12:25:32;;;;;;;3.42;1.17;;;21.40;99.90;;;;;;5049575;28;20099;-82
2023/08/26 12:28:10;;;;;;;2.15;0.93;;;21.30;99.90;;;;;;5049282;28;20044;-82
2023/08/26 12:30:37;;;;;;;1.20;0.40;;;21.20;99.90;;;;;;5033576;28;20037;-81
2023/08/26 12:33:06;;;;;;;2.70;0.70;;;21.20;99.90;;;;;;5058096;28;20036;-81
2023/08/26 12:35:37;;;;;;;0.60;0.30;;;21.40;99.90;;;;;;5031333;28;20045;-81
2023/08/26 12:38:04;;;;;;;2.63;0.55;;;21.50;99.90;;;;;;5040349;28;20051;-82
2023/08/26 12:40:31;;;;;;;2.45;0.77;;;21.60;99.90;;;;;;5053690;28;20481;-81
2023/08/26 12:42:58;;;;;;;2.42;0.40;;;21.60;99.90;;;;;;5054224;28;20059;-82
2023/08/26 12:45:25;;;;;;;1.42;0.45;;;21.70;99.90;;;;;;5054096;28;20339;-82
2023/08/26 12:47:52;;;;;;;2.05;0.52;;;21.80;99.90;;;;;;5056078;28;20040;-80